Have a Safe July 4th! 

Flight Track Log - Related Links

Times and Time Zones

All times are in EDT time to prevent confusion due to time zone crossing. See the EJA102 flight status page for this flight to view local times or setup timezone preferences in your user account.

Time Position Orientation Groundspeed Altitude Reporting Facility
EDT Latitude Longitude Course Direction KTS MPH feet Rate Location/Type
Sat 03:19:52 PM 42.6672 -73.8067 172° South 273 314 7,100  Level Boston Center
Sat 03:21:05 PM 42.6139 -73.7294 133° Southeast 283 326 10,500 2,194 Climbing Boston Center
Sat 03:22:06 PM 42.5361 -73.6094 131° Southeast 334 384 12,000 1,289 Climbing Boston Center
Sat 03:23:06 PM 42.4744 -73.5097 130° Southeast 379 436 13,100 559 Climbing Boston Center
Sat 03:24:04 PM 42.3903 -73.3819 132° Southeast 398 458 13,100 -51 Level Boston Center
Sat 03:25:04 PM 42.3222 -73.2714 130° Southeast 419 482 13,000 -50 Descending Boston Center
Sat 03:26:05 PM 42.2378 -73.1411 131° Southeast 419 482 13,000  Level Boston Center
Sat 03:27:06 PM 42.1694 -73.0367 131° Southeast 412 474 13,000 -49 Level Boston Center
Sat 03:28:07 PM 42.0869 -72.9100 131° Southeast 412 474 12,900 -50 Descending Boston Center
Sat 03:29:05 PM 42.0164 -72.8089 133° Southeast 412 474 12,900  Level Boston Center
Sat 03:30:05 PM 41.9417 -72.6942 131° Southeast 412 474 12,900  Level Boston Center
Sat 03:31:05 PM 41.8669 -72.5572 126° Southeast 412 474 12,900  Level Boston Center
Sat 03:32:04 PM 41.8044 -72.4456 127° Southeast 419 482 12,900 -529 Level Boston Center
Sat 03:33:21 PM 41.7064 -72.2733 127° Southeast 400 460 11,700 -1,065 Descending Boston Center
Sat 03:33:51 PM 41.6750 -72.2150 126° Southeast 396 456 11,000 -447 Descending Boston Center
Sat 03:34:55 PM 41.6100 -72.0958 126° Southeast 385 443 11,000 -361 Level Boston Center
Sat 03:36:04 PM 41.5450 -71.9631 123° Southeast 392 451 10,200 -756 Descending Boston Center
Sat 03:37:02 PM 41.4983 -71.8275 115° Southeast 384 442 9,400 -1,068 Descending Boston Center
Sat 03:38:02 PM 41.4581 -71.7117 115° Southeast 311 358 8,100 -1,339 Descending Boston Center
Sat 03:39:03 PM 41.4908 -71.6142 66° East 273 314 6,700 -1,426 Descending Boston Center
Sat 03:40:04 PM 41.5339 -71.5417 52° Northeast 234 269 5,200 -1,377 Descending Boston Center
Sat 03:40:04 PM 41.5339 -71.5417 52° Northeast 261 300 5,300 -197 Climbing Boston Center
Sat 03:41:05 PM 41.5856 -71.4686 47° Northeast 250 288 5,000 -149 Descending Boston Center
Sat 03:42:05 PM 41.6369 -71.4042 43° Northeast 248 285 5,000  Level Boston Center
Sat 03:43:05 PM 41.6867 -71.3558 36° Northeast 235 270 5,000 -595 Level Boston Center
Sat 03:44:06 PM 41.7300 -71.3108 38° Northeast 202 232 3,800 -1,258 Descending Boston Center
Sat 03:45:09 PM 41.7697 -71.3294 341° North 191 220 2,400 -1,161 Descending Boston Center
Sat 03:46:10 PM 41.7683 -71.3908 268° West 141 162 1,400 -1,034 Descending Boston Center
Sat 03:47:05 PM 41.7414 -71.4133 212° Southwest 116 133 400 6,052 Descending Boston Center
Sat 03:48:05 PM 41.7206 -71.4306 212° Southwest 115 132 13,000 6,248 Climbing Boston Center
Sat 03:49:06 PM 41.7206 -71.4333 270° West 62 71 13,000  Level Boston Center
Sat 03:50:19 PM 41.7125 -71.4389 207° Southwest 42 48 13,000  Level Boston Center
Sat 03:51:17 PM 41.7000 -71.4475 207° Southwest 42 48 13,000  Level Boston Center
Sat 03:52:17 PM 41.6894 -71.4533 202° Southwest 42 48 13,000  Level Boston Center
Sat 03:54:00 PM 41.7167 -71.4167 37° Northeast  Level FlightAware Approximate
Sat 04:01:00 PM 41.7240 -71.4282 37° Northeast  Level Estimated
Sat 04:02:00 PM 41.7240 -71.4282 37° Northeast  Level Estimated

Login

Don't have an account? Register now (free) for customized features, flight alerts, and more!